createdAt,value
2019-05-20T00:00:53.409Z,3.85
2019-05-20T00:03:22.930Z,4.35
2019-05-20T00:05:52.631Z,3.70
2019-05-20T00:08:23.833Z,3.75
2019-05-20T00:10:53.235Z,3.47
2019-05-20T00:13:22.713Z,3.67
2019-05-20T00:15:52.150Z,4.10
2019-05-20T00:18:21.630Z,3.60
2019-05-20T00:20:51.084Z,3.58
2019-05-20T00:23:20.551Z,3.75
2019-05-20T00:25:50.074Z,3.98
2019-05-20T00:28:20.620Z,3.95
2019-05-20T00:30:50.075Z,3.75
2019-05-20T00:33:19.568Z,4.03
2019-05-20T00:35:49.117Z,3.70
2019-05-20T00:38:18.567Z,3.72
2019-05-20T00:40:48.179Z,3.90
2019-05-20T00:43:17.950Z,3.45
2019-05-20T00:45:47.410Z,3.70
2019-05-20T00:48:16.863Z,3.55
2019-05-20T00:50:46.304Z,3.90
2019-05-20T00:53:15.751Z,3.47
2019-05-20T00:55:45.215Z,3.77
2019-05-20T00:58:14.749Z,3.80
2019-05-20T01:00:44.361Z,3.65
2019-05-20T01:03:13.817Z,3.62
2019-05-20T01:05:43.291Z,3.85
2019-05-20T01:08:12.744Z,3.45
2019-05-20T01:10:42.200Z,3.65
2019-05-20T01:13:11.644Z,3.83
2019-05-20T01:15:41.091Z,3.72
2019-05-20T01:18:10.606Z,3.95
2019-05-20T01:20:41.202Z,3.87
2019-05-20T01:23:10.659Z,3.52
2019-05-20T01:25:40.110Z,3.20
2019-05-20T01:28:09.563Z,3.70
2019-05-20T01:30:39.011Z,3.47
2019-05-20T01:33:13.913Z,3.60
2019-05-20T01:35:39.534Z,3.50
2019-05-20T01:38:08.987Z,3.72
2019-05-20T01:40:38.447Z,4.05
2019-05-20T01:43:07.896Z,3.42
2019-05-20T01:45:37.351Z,3.87
2019-05-20T01:48:06.802Z,3.55
2019-05-20T01:50:36.258Z,3.70
2019-05-20T01:53:05.707Z,3.65
2019-05-20T01:55:35.199Z,3.67
2019-05-20T01:58:04.649Z,3.42
2019-05-20T02:00:34.089Z,4.10
2019-05-20T02:03:03.534Z,3.62
2019-05-20T02:05:32.991Z,3.90
2019-05-20T02:08:02.451Z,3.80
2019-05-20T02:10:31.900Z,3.98
2019-05-20T02:13:01.350Z,3.98
2019-05-20T02:15:35.090Z,3.60
2019-05-20T02:18:04.535Z,4.00
2019-05-20T02:20:34.068Z,3.52
2019-05-20T02:23:16.435Z,4.08
2019-05-20T02:25:50.980Z,3.95
2019-05-20T02:28:20.435Z,4.12
2019-05-20T02:30:49.971Z,4.15
2019-05-20T02:33:19.425Z,4.20
2019-05-20T02:35:48.885Z,4.08
2019-05-20T02:38:18.331Z,4.28
2019-05-20T02:40:47.783Z,3.90
2019-05-20T02:43:17.227Z,4.17
2019-05-20T02:45:46.679Z,4.33
2019-05-20T02:48:16.173Z,3.92
2019-05-20T02:50:45.646Z,3.87
2019-05-20T02:53:15.097Z,4.10
2019-05-20T02:55:44.573Z,4.30
2019-05-20T02:58:14.094Z,4.00
2019-05-20T03:00:43.570Z,4.17
2019-05-20T03:03:13.015Z,4.17
2019-05-20T03:05:42.724Z,4.00
2019-05-20T03:08:12.228Z,3.87
2019-05-20T03:10:42.391Z,4.05
2019-05-20T03:13:11.839Z,3.70
2019-05-20T03:15:41.307Z,4.33
2019-05-20T03:18:10.764Z,3.85
2019-05-20T03:20:40.243Z,4.17
2019-05-20T03:23:09.760Z,3.95
2019-05-20T03:25:39.281Z,4.10
2019-05-20T03:28:08.739Z,3.92
2019-05-20T03:30:38.205Z,4.03
2019-05-20T03:33:07.757Z,3.50
2019-05-20T03:35:38.353Z,3.83
2019-05-20T03:38:07.811Z,3.70
2019-05-20T03:40:37.262Z,4.15
2019-05-20T03:43:06.714Z,3.75
2019-05-20T03:45:36.173Z,4.12
2019-05-20T03:48:05.645Z,3.85
2019-05-20T03:50:35.101Z,4.05
2019-05-20T03:53:04.746Z,3.80
2019-05-20T03:55:34.205Z,4.05
2019-05-20T03:58:03.767Z,3.72
2019-05-20T04:00:47.217Z,3.52
2019-05-20T04:03:17.472Z,3.72
2019-05-20T04:05:47.001Z,3.65
2019-05-20T04:08:16.467Z,4.50
2019-05-20T04:10:45.912Z,3.92
2019-05-20T04:13:15.447Z,3.77
2019-05-20T04:15:44.899Z,3.65
2019-05-20T04:18:14.472Z,3.75
2019-05-20T04:20:44.158Z,4.17
2019-05-20T04:23:13.604Z,3.90
2019-05-20T04:25:43.052Z,4.00
2019-05-20T04:28:12.529Z,4.08
2019-05-20T04:30:41.977Z,3.70
2019-05-20T04:33:11.437Z,4.03
2019-05-20T04:35:40.900Z,3.52
2019-05-20T04:38:10.361Z,3.83
2019-05-20T04:40:40.361Z,3.75
2019-05-20T04:43:09.888Z,4.20
2019-05-20T04:45:39.341Z,4.20
2019-05-20T04:48:08.802Z,4.08
2019-05-20T04:50:38.277Z,3.58
2019-05-20T04:53:07.735Z,4.17
2019-05-20T04:55:37.200Z,3.95
2019-05-20T04:58:06.687Z,3.77
2019-05-20T05:00:53.197Z,3.90
2019-05-20T05:03:22.985Z,4.28
2019-05-20T05:05:52.568Z,3.75
2019-05-20T05:08:22.370Z,3.58
2019-05-20T05:10:52.367Z,4.17
2019-05-20T05:13:22.508Z,4.22
2019-05-20T05:15:52.028Z,4.00
2019-05-20T05:18:21.866Z,3.70
2019-05-20T05:20:51.458Z,4.03
2019-05-20T05:23:21.546Z,4.60
2019-05-20T05:25:51.002Z,4.92
2019-05-20T05:28:20.936Z,5.15
2019-05-20T05:30:50.518Z,5.12
2019-05-20T05:33:19.994Z,4.67
2019-05-20T05:35:53.272Z,5.15
2019-05-20T05:38:21.345Z,4.67
2019-05-20T05:40:50.814Z,4.45
2019-05-20T05:43:20.277Z,4.60
2019-05-20T05:45:49.729Z,4.05
2019-05-20T05:48:19.293Z,4.20
2019-05-20T05:50:48.759Z,4.60
2019-05-20T05:53:18.243Z,4.58
2019-05-20T05:55:47.733Z,8.08
2019-05-20T05:58:17.422Z,8.70
2019-05-20T06:00:46.886Z,8.53
2019-05-20T06:03:16.371Z,8.33
2019-05-20T06:05:45.832Z,8.73
2019-05-20T06:08:15.325Z,8.40
2019-05-20T06:10:44.785Z,8.15
2019-05-20T06:13:14.258Z,7.30
2019-05-20T06:15:43.731Z,8.30
2019-05-20T06:18:13.267Z,8.88
2019-05-20T06:20:42.731Z,7.95
2019-05-20T06:23:12.192Z,7.55
2019-05-20T06:25:41.654Z,7.05
2019-05-20T06:28:11.126Z,7.62
2019-05-20T06:30:42.530Z,7.58
2019-05-20T06:33:11.979Z,8.25
2019-05-20T06:35:41.449Z,8.33
2019-05-20T06:38:15.810Z,7.78
2019-05-20T06:40:45.345Z,7.90
2019-05-20T06:43:14.799Z,8.15
2019-05-20T06:45:44.268Z,8.45
2019-05-20T06:48:13.833Z,8.15
2019-05-20T06:50:43.294Z,7.60
2019-05-20T06:53:12.760Z,7.80
2019-05-20T06:55:42.220Z,7.37
2019-05-20T06:58:11.687Z,7.58
2019-05-20T07:00:42.758Z,7.35
2019-05-20T07:03:12.227Z,7.60
2019-05-20T07:05:41.757Z,8.00
2019-05-20T07:08:11.206Z,7.87
2019-05-20T07:10:40.681Z,7.75
2019-05-20T07:13:10.145Z,7.50
2019-05-20T07:15:39.930Z,7.35
2019-05-20T07:18:09.486Z,7.87
2019-05-20T07:20:39.016Z,7.08
2019-05-20T07:23:08.649Z,7.97
2019-05-20T07:25:38.223Z,8.03
2019-05-20T07:28:07.769Z,7.95
2019-05-20T07:30:37.230Z,7.72
2019-05-20T07:33:06.697Z,8.40
2019-05-20T07:35:36.159Z,8.28
2019-05-20T07:38:05.660Z,7.28
2019-05-20T07:40:35.196Z,7.53
2019-05-20T07:43:05.030Z,6.95
2019-05-20T07:45:35.977Z,6.72
2019-05-20T07:48:06.029Z,6.95
2019-05-20T07:50:37.777Z,6.62
2019-05-20T07:53:08.273Z,6.83
2019-05-20T07:55:55.740Z,6.92
2019-05-20T07:58:27.933Z,6.80
2019-05-20T08:00:57.415Z,6.78
2019-05-20T08:03:26.823Z,6.70
2019-05-20T08:05:56.274Z,6.42
2019-05-20T08:08:25.741Z,6.45
2019-05-20T08:10:55.203Z,5.55
2019-05-20T08:13:24.751Z,6.47
2019-05-20T08:15:54.208Z,6.42
2019-05-20T08:18:23.750Z,6.12
2019-05-20T08:20:53.192Z,6.03
2019-05-20T08:23:22.718Z,6.55
2019-05-20T08:25:52.251Z,5.90
2019-05-20T08:28:21.719Z,5.70
2019-05-20T08:30:51.186Z,6.10
2019-05-20T08:33:20.853Z,7.00
2019-05-20T08:35:50.924Z,7.30
2019-05-20T08:38:20.438Z,9.45
2019-05-20T08:40:49.907Z,8.05
2019-05-20T08:43:19.435Z,7.58
2019-05-20T08:45:49.245Z,8.68
2019-05-20T08:48:18.862Z,7.78
2019-05-20T08:50:48.325Z,7.65
2019-05-20T08:53:17.781Z,8.00
2019-05-20T08:55:47.283Z,7.53
2019-05-20T08:58:19.482Z,8.28
2019-05-20T09:00:49.033Z,7.78
2019-05-20T09:03:18.480Z,7.85
2019-05-20T09:05:47.935Z,7.85
2019-05-20T09:08:17.470Z,7.87
2019-05-20T09:10:47.703Z,8.03
2019-05-20T09:13:17.176Z,7.30
2019-05-20T09:15:46.642Z,7.58
2019-05-20T09:18:16.108Z,7.10
2019-05-20T09:20:45.649Z,6.65
2019-05-20T09:23:15.583Z,7.30
2019-05-20T09:25:45.139Z,6.70
2019-05-20T09:28:14.638Z,6.83
2019-05-20T09:30:44.354Z,6.97
2019-05-20T09:33:14.355Z,10.88
2019-05-20T09:35:44.222Z,9.93
2019-05-20T09:38:20.309Z,8.90
2019-05-20T09:40:48.103Z,8.28
2019-05-20T09:43:17.780Z,8.50
2019-05-20T09:45:47.270Z,8.30
2019-05-20T09:48:16.743Z,9.03
2019-05-20T09:50:46.266Z,8.68
2019-05-20T09:53:15.733Z,8.48
2019-05-20T09:55:45.249Z,9.63
2019-05-20T09:58:14.753Z,9.30
2019-05-20T10:00:44.787Z,9.05
2019-05-20T10:03:14.246Z,8.98
2019-05-20T10:05:43.702Z,8.68
2019-05-20T10:08:13.245Z,9.60
2019-05-20T10:10:42.815Z,8.45
2019-05-20T10:13:12.269Z,8.23
2019-05-20T10:15:41.805Z,8.35
2019-05-20T10:18:11.272Z,8.58
2019-05-20T10:20:40.867Z,7.75
2019-05-20T10:23:10.378Z,8.30
2019-05-20T10:25:40.009Z,7.47
2019-05-20T10:28:09.460Z,7.72
2019-05-20T10:30:38.939Z,7.60
2019-05-20T10:33:10.732Z,7.92
2019-05-20T10:35:39.535Z,7.97
2019-05-20T10:38:09.028Z,7.90
2019-05-20T10:40:38.505Z,7.45
2019-05-20T10:43:08.164Z,7.62
2019-05-20T10:45:37.632Z,7.62
2019-05-20T10:48:08.866Z,8.25
2019-05-20T10:50:38.166Z,7.95
2019-05-20T10:53:07.629Z,7.65
2019-05-20T10:55:37.077Z,7.67
2019-05-20T10:58:06.537Z,7.25
2019-05-20T11:00:36.005Z,7.45
2019-05-20T11:03:05.456Z,7.78
2019-05-20T11:05:34.911Z,6.78
2019-05-20T11:08:04.363Z,7.22
2019-05-20T11:10:33.825Z,7.87
2019-05-20T11:13:03.543Z,7.62
2019-05-20T11:15:33.081Z,7.10
2019-05-20T11:18:02.545Z,7.30
2019-05-20T11:20:32.001Z,6.53
2019-05-20T11:23:01.588Z,7.35
2019-05-20T11:25:31.045Z,7.47
2019-05-20T11:28:00.978Z,7.10
2019-05-20T11:30:30.846Z,7.08
2019-05-20T11:33:00.313Z,6.75
2019-05-20T11:35:29.830Z,6.78
2019-05-20T11:37:59.350Z,7.20
2019-05-20T11:40:28.760Z,7.03
2019-05-20T11:42:59.183Z,7.58
2019-05-20T11:45:28.773Z,7.05
2019-05-20T11:47:58.234Z,7.00
2019-05-20T11:50:27.683Z,6.67
2019-05-20T11:52:57.162Z,7.30
2019-05-20T11:55:26.685Z,6.92
2019-05-20T11:57:56.259Z,7.15
2019-05-20T12:00:25.847Z,6.40
2019-05-20T12:02:55.301Z,6.55
2019-05-20T12:05:24.754Z,6.75
2019-05-20T12:07:54.208Z,6.97
2019-05-20T12:10:23.728Z,7.30
2019-05-20T12:12:53.201Z,7.08
2019-05-20T12:15:22.732Z,6.60
2019-05-20T12:17:52.190Z,6.95
2019-05-20T12:20:21.894Z,6.83
2019-05-20T12:22:51.354Z,6.45
2019-05-20T12:25:20.800Z,6.87
2019-05-20T12:27:50.528Z,6.78
2019-05-20T12:30:20.175Z,6.20
2019-05-20T12:32:49.716Z,6.78
2019-05-20T12:35:19.168Z,6.42
2019-05-20T12:37:48.629Z,6.92
2019-05-20T12:40:19.690Z,6.00
2019-05-20T12:42:49.237Z,7.08
2019-05-20T12:45:18.865Z,6.65
2019-05-20T12:47:48.497Z,6.28
2019-05-20T12:50:18.291Z,7.53
2019-05-20T12:52:47.751Z,6.47
2019-05-20T12:55:17.270Z,6.70
2019-05-20T12:57:46.871Z,6.17
2019-05-20T13:00:17.530Z,6.65
2019-05-20T13:02:46.928Z,6.55
2019-05-20T13:05:18.011Z,6.55
2019-05-20T13:07:47.527Z,6.47
2019-05-20T13:10:28.837Z,6.25
2019-05-20T13:12:48.526Z,6.47
2019-05-20T13:15:18.153Z,6.60
2019-05-20T13:17:47.608Z,6.75
2019-05-20T13:20:17.196Z,6.97
2019-05-20T13:22:46.651Z,6.35
2019-05-20T13:25:16.349Z,7.47
2019-05-20T13:27:45.812Z,6.42
2019-05-20T13:30:16.013Z,7.72
2019-05-20T13:32:45.488Z,8.53
2019-05-20T13:35:15.430Z,8.50
2019-05-20T13:37:44.887Z,9.43
2019-05-20T13:40:14.726Z,9.13
2019-05-20T13:42:44.518Z,9.60
2019-05-20T13:45:14.442Z,8.35
2019-05-20T13:47:43.871Z,8.65
2019-05-20T13:50:13.677Z,8.63
2019-05-20T13:52:43.414Z,8.35
2019-05-20T13:55:13.093Z,8.25
2019-05-20T13:57:44.235Z,8.60
2019-05-20T14:00:14.241Z,8.63
2019-05-20T14:02:43.774Z,7.75
2019-05-20T14:05:14.384Z,8.63
2019-05-20T14:07:43.848Z,7.65
2019-05-20T14:10:13.563Z,8.30
2019-05-20T14:12:43.197Z,8.60
2019-05-20T14:15:13.005Z,8.48
2019-05-20T14:17:42.460Z,7.83
2019-05-20T14:20:12.272Z,8.08
2019-05-20T14:22:41.737Z,7.85
2019-05-20T14:25:11.735Z,8.20
2019-05-20T14:27:41.269Z,8.10
2019-05-20T14:30:11.945Z,7.95
2019-05-20T14:32:42.280Z,7.37
2019-05-20T14:35:12.037Z,8.10
2019-05-20T14:37:41.504Z,7.67
2019-05-20T14:40:11.516Z,7.83
2019-05-20T14:42:40.976Z,8.13
2019-05-20T14:45:10.984Z,7.40
2019-05-20T14:47:40.520Z,8.20
2019-05-20T14:50:10.230Z,7.83
2019-05-20T14:52:39.703Z,8.18
2019-05-20T14:55:09.503Z,8.50
2019-05-20T14:57:39.045Z,8.03
2019-05-20T15:00:09.378Z,8.00
2019-05-20T15:02:38.880Z,7.65
2019-05-20T15:05:08.751Z,7.37
2019-05-20T15:07:38.204Z,7.30
2019-05-20T15:10:09.824Z,7.28
2019-05-20T15:12:39.362Z,7.17
2019-05-20T15:15:09.870Z,7.62
2019-05-20T15:17:39.325Z,7.28
2019-05-20T15:20:09.331Z,6.90
2019-05-20T15:22:38.795Z,7.62
2019-05-20T15:25:09.954Z,6.33
2019-05-20T15:27:39.407Z,7.17
2019-05-20T15:30:09.717Z,6.75
2019-05-20T15:32:39.186Z,7.00
2019-05-20T15:35:09.809Z,7.25
2019-05-20T15:37:39.268Z,6.65
2019-05-20T15:40:09.053Z,6.37
2019-05-20T15:42:38.513Z,6.50
2019-05-20T15:45:10.124Z,6.45
2019-05-20T15:47:39.657Z,6.37
2019-05-20T15:50:10.580Z,6.47
2019-05-20T15:52:40.480Z,6.42
2019-05-20T15:55:11.089Z,6.47
2019-05-20T15:57:40.560Z,6.37
2019-05-20T16:00:10.748Z,5.78
2019-05-20T16:02:40.379Z,5.55
2019-05-20T16:05:10.684Z,5.72
2019-05-20T16:07:40.167Z,6.03
2019-05-20T16:10:09.969Z,7.17
2019-05-20T16:12:39.591Z,5.72
2019-05-20T16:15:09.835Z,6.50
2019-05-20T16:17:39.341Z,5.83
2019-05-20T16:20:10.366Z,5.37
2019-05-20T16:22:39.840Z,5.65
2019-05-20T16:25:09.833Z,5.55
2019-05-20T16:27:39.311Z,5.62
2019-05-20T16:30:10.510Z,5.28
2019-05-20T16:32:40.296Z,6.28
2019-05-20T16:35:10.096Z,5.40
2019-05-20T16:37:39.736Z,4.85
2019-05-20T16:40:09.879Z,5.70
2019-05-20T16:42:40.521Z,5.75
2019-05-20T16:45:12.368Z,5.33
2019-05-20T16:47:42.944Z,5.60
2019-05-20T16:50:12.946Z,5.37
2019-05-20T16:52:42.414Z,5.05
2019-05-20T16:55:13.588Z,5.37
2019-05-20T16:57:43.130Z,5.25
2019-05-20T17:00:29.660Z,4.95
2019-05-20T17:02:44.656Z,4.65
2019-05-20T17:05:14.457Z,4.25
2019-05-20T17:07:45.188Z,5.10
2019-05-20T17:10:15.157Z,4.60
2019-05-20T17:12:44.689Z,4.90
2019-05-20T17:15:14.697Z,4.80
2019-05-20T17:17:44.211Z,4.37
2019-05-20T17:20:14.317Z,3.92
2019-05-20T17:22:43.922Z,4.90
2019-05-20T17:25:13.426Z,3.72
2019-05-20T17:27:42.958Z,3.98
2019-05-20T17:30:12.928Z,4.60
2019-05-20T17:32:42.415Z,4.45
2019-05-20T17:35:12.013Z,3.90
2019-05-20T17:37:41.661Z,4.15
2019-05-20T17:40:11.966Z,4.30
2019-05-20T17:42:41.450Z,3.83
2019-05-20T17:45:11.943Z,4.00
2019-05-20T17:47:41.418Z,4.53
2019-05-20T17:50:11.622Z,4.00
2019-05-20T17:52:41.144Z,4.00
2019-05-20T17:55:11.237Z,4.35
2019-05-20T17:57:40.689Z,4.30
2019-05-20T18:00:12.720Z,4.30
2019-05-20T18:02:42.349Z,3.95
2019-05-20T18:05:14.866Z,3.65
2019-05-20T18:07:43.399Z,3.50
2019-05-20T18:10:13.216Z,3.67
2019-05-20T18:12:42.679Z,4.35
2019-05-20T18:15:12.295Z,4.10
2019-05-20T18:17:41.740Z,3.60
2019-05-20T18:20:11.496Z,3.62
2019-05-20T18:22:40.917Z,3.40
2019-05-20T18:25:10.806Z,3.37
2019-05-20T18:27:40.333Z,3.60
2019-05-20T18:30:10.205Z,3.10
2019-05-20T18:32:39.732Z,3.33
2019-05-20T18:35:09.341Z,3.20
2019-05-20T18:37:39.860Z,3.33
2019-05-20T18:40:14.796Z,3.10
2019-05-20T18:42:41.120Z,2.92
2019-05-20T18:45:11.124Z,3.20
2019-05-20T18:47:40.579Z,2.95
2019-05-20T18:50:10.569Z,3.20
2019-05-20T18:52:40.027Z,3.20
2019-05-20T18:55:09.725Z,3.15
2019-05-20T18:57:39.181Z,2.58
2019-05-20T19:00:10.353Z,3.10
2019-05-20T19:02:40.877Z,2.92
2019-05-20T19:05:10.498Z,3.02
2019-05-20T19:07:40.284Z,3.45
2019-05-20T19:10:10.836Z,3.15
2019-05-20T19:12:40.357Z,3.45
2019-05-20T19:15:10.451Z,2.67
2019-05-20T19:17:40.028Z,2.92
2019-05-20T19:20:09.616Z,2.85
2019-05-20T19:22:39.079Z,2.77
2019-05-20T19:25:08.809Z,3.22
2019-05-20T19:27:38.336Z,2.95
2019-05-20T19:30:09.049Z,2.70
2019-05-20T19:32:38.672Z,2.75
2019-05-20T19:35:09.068Z,3.00
2019-05-20T19:37:39.095Z,2.72
2019-05-20T19:40:09.285Z,3.08
2019-05-20T19:42:40.167Z,2.90
2019-05-20T19:45:09.859Z,3.00
2019-05-20T19:47:39.387Z,2.60
2019-05-20T19:50:09.200Z,2.72
2019-05-20T19:52:39.830Z,2.60
2019-05-20T19:55:09.694Z,2.80
2019-05-20T19:57:39.403Z,2.70
2019-05-20T20:00:09.769Z,2.85
2019-05-20T20:02:39.300Z,2.62
2019-05-20T20:05:09.121Z,3.02
2019-05-20T20:07:38.754Z,2.75
2019-05-20T20:10:09.639Z,3.00
2019-05-20T20:12:39.097Z,3.10
2019-05-20T20:15:10.458Z,2.40
2019-05-20T20:17:39.922Z,2.85
2019-05-20T20:20:09.626Z,3.22
2019-05-20T20:22:39.081Z,2.70
2019-05-20T20:25:08.876Z,2.60
2019-05-20T20:27:38.803Z,2.85
2019-05-20T20:30:09.008Z,2.55
2019-05-20T20:32:38.992Z,2.30
2019-05-20T20:35:10.009Z,2.30
2019-05-20T20:37:39.493Z,2.83
2019-05-20T20:40:10.192Z,2.60
2019-05-20T20:42:39.714Z,2.70
2019-05-20T20:45:09.345Z,2.47
2019-05-20T20:47:42.070Z,2.40
2019-05-20T20:50:10.224Z,2.50
2019-05-20T20:52:40.026Z,2.62
2019-05-20T20:55:09.556Z,2.65
2019-05-20T20:57:39.025Z,2.50
2019-05-20T21:00:10.248Z,2.12
2019-05-20T21:02:52.276Z,2.47
2019-05-20T21:05:11.533Z,2.35
2019-05-20T21:07:41.017Z,2.52
2019-05-20T21:10:10.830Z,2.37
2019-05-20T21:12:41.421Z,2.20
2019-05-20T21:15:12.111Z,2.52
2019-05-20T21:17:41.753Z,1.85
2019-05-20T21:20:11.535Z,2.20
2019-05-20T21:22:40.986Z,2.47
2019-05-20T21:25:10.512Z,2.22
2019-05-20T21:27:39.972Z,2.15
2019-05-20T21:36:58.940Z,2.27
2019-05-20T21:42:45.090Z,2.20
2019-05-20T21:47:07.284Z,2.33
2019-05-20T21:49:37.664Z,2.60
2019-05-20T21:52:07.052Z,2.25
2019-05-20T21:54:36.373Z,2.30
2019-05-20T21:57:06.029Z,2.42
2019-05-20T21:59:35.428Z,2.30
2019-05-20T22:02:04.827Z,2.62
2019-05-20T22:04:34.220Z,2.22
2019-05-20T22:07:03.744Z,2.22
2019-05-20T22:09:33.043Z,2.27
2019-05-20T22:12:02.368Z,2.10
2019-05-20T22:14:31.936Z,2.20
2019-05-20T22:17:01.393Z,2.20
2019-05-20T22:19:30.964Z,2.20
2019-05-20T22:22:04.931Z,2.02
2019-05-20T22:24:34.347Z,2.20
2019-05-20T22:27:03.920Z,2.08
2019-05-20T22:29:33.824Z,2.22
2019-05-20T22:32:03.750Z,1.90
2019-05-20T22:34:33.497Z,1.95
2019-05-20T22:37:03.354Z,2.00
2019-05-20T22:39:33.142Z,2.00
2019-05-20T22:42:02.562Z,1.92
2019-05-20T22:44:31.863Z,1.50
2019-05-20T22:47:01.276Z,2.02
2019-05-20T22:49:30.871Z,1.77
2019-05-20T22:52:00.268Z,1.82
2019-05-20T22:54:29.607Z,1.70
2019-05-20T22:56:59.183Z,1.70
2019-05-20T22:59:28.665Z,1.90
2019-05-20T23:01:57.967Z,1.80
2019-05-20T23:04:27.442Z,1.85
2019-05-20T23:06:56.943Z,1.80
2019-05-20T23:09:26.240Z,2.17
2019-05-20T23:11:55.640Z,1.87
2019-05-20T23:14:25.606Z,1.52
2019-05-20T23:16:54.908Z,1.92
2019-05-20T23:19:25.279Z,1.80
2019-05-20T23:21:54.653Z,1.80
2019-05-20T23:24:23.958Z,1.50
2019-05-20T23:26:54.332Z,1.80
2019-05-20T23:29:23.653Z,2.10
2019-05-20T23:31:52.955Z,1.95
2019-05-20T23:34:22.265Z,1.90
2019-05-20T23:36:51.570Z,2.10
2019-05-20T23:39:20.956Z,1.98
2019-05-20T23:41:50.254Z,1.95
2019-05-20T23:44:19.592Z,1.98
2019-05-20T23:46:48.870Z,1.70
2019-05-20T23:49:18.392Z,1.80
2019-05-20T23:51:47.731Z,2.00
2019-05-20T23:54:17.039Z,1.70
2019-05-20T23:56:46.512Z,1.80
2019-05-20T23:59:15.816Z,2.10
